My Profile
  1. Member Settings
  2. My Devices
  3. Sign Out
        More Settings
      Elev 604 ft, 34.276 °N 93.442 °W

      Amity, AR

      Summary

      Temperature (°F)MaxAverageMin
      Max Temperature9987.1375
      Avg Temperature82.8773.360.79
      Min Temperature7362.6845
      Precipitation (in)MaxAverageMinSum
      Precipitation2.210.1203.71
      Dew Point (°F)MaxAverageMin
      Dew Point72.5362.8345.88
      Wind (mph)MaxAverageMin
      Wind106.480
      Gust Wind171717
      Sea Level Pressure (in)MaxAverageMin
      Sea Level Pressure29.4429.2529.06

      Daily Observations

      DateTemp High/LowDew Pt High/LowHumidityWindMax WindWind GustPressurePrecip.Condition
      9/1/2021 99 °F / 70 °F 74 °F / 68 °F 78 % 8 mph - 29.07 in 0.1 in
      9/2/2021 90 °F / 70 °F 72 °F / 68 °F 76 % 6 mph - 29.2 in 0 in
      9/3/2021 91 °F / 69 °F 74 °F / 67 °F 75 % 6 mph - 29.23 in 0 in
      9/4/2021 93 °F / 73 °F 73 °F / 70 °F 71 % 8 mph - 29.18 in 0 in
      9/5/2021 85 °F / 69 °F 74 °F / 67 °F 85 % 6 mph - 29.19 in 2.21 in
      9/6/2021 90 °F / 66 °F 70 °F / 59 °F 82 % 7 mph - 29.27 in 0 in
      9/7/2021 90 °F / 59 °F 65 °F / 57 °F 70 % 6 mph - 29.2 in 0 in
      9/8/2021 90 °F / 60 °F 67 °F / 51 °F 62 % 7 mph - 29.19 in 0 in
      9/9/2021 90 °F / 53 °F 59 °F / 50 °F 63 % 5 mph - 29.28 in 0 in
      9/10/2021 92 °F / 57 °F 60 °F / 54 °F 58 % 6 mph - 29.3 in 0 in
      9/11/2021 91 °F / 59 °F 63 °F / 57 °F 59 % 7 mph - 29.34 in 0 in
      9/12/2021 89 °F / 59 °F 64 °F / 53 °F 66 % 7 mph - 29.36 in 0 in
      9/13/2021 78 °F / 64 °F 71 °F / 62 °F 88 % 6 mph - 29.31 in 0.01 in
      9/14/2021 89 °F / 71 °F 73 °F / 64 °F 79 % 7 mph - 29.22 in 0 in
      9/15/2021 91 °F / 67 °F 68 °F / 64 °F 69 % 6 mph - 29.16 in 0 in
      9/16/2021 89 °F / 65 °F 69 °F / 63 °F 77 % 8 mph - 29.19 in 0 in
      9/17/2021 87 °F / 65 °F 70 °F / 64 °F 80 % 7 mph - 29.24 in 0 in
      9/18/2021 92 °F / 69 °F 71 °F / 67 °F 82 % 6 mph - 29.28 in 0 in
      9/19/2021 85 °F / 70 °F 71 °F / 68 °F 85 % 10 mph - 29.22 in 0.01 in
      9/20/2021 88 °F / 70 °F 72 °F / 68 °F 78 % 7 mph - 29.14 in 0 in
      9/21/2021 79 °F / 58 °F 73 °F / 53 °F 88 % 9 mph - 29.31 in 1.35 in
      9/22/2021 80 °F / 51 °F 52 °F / 41 °F 64 % 8 mph - 29.43 in 0 in
      9/23/2021 80 °F / 45 °F 52 °F / 39 °F 66 % 6 mph - 29.34 in 0 in
      9/24/2021 81 °F / 45 °F 54 °F / 44 °F 69 % 6 mph - 29.31 in 0 in
      9/25/2021 89 °F / 50 °F 55 °F / 46 °F 64 % 6 mph - 29.32 in 0 in
      9/26/2021 88 °F / 51 °F 59 °F / 49 °F 65 % 7 mph - 29.3 in 0 in
      9/27/2021 87 °F / 58 °F 61 °F / 53 °F 68 % 7 mph - 29.25 in 0 in
      9/28/2021 90 °F / 59 °F 68 °F / 58 °F 70 % 7 mph - 29.17 in 0 in
      9/29/2021 76 °F / 67 °F 67 °F / 64 °F 79 % 6 mph - 29.17 in 0 in
      9/30/2021 83 °F / 64 °F 70 °F / 62 °F 86 % 3 mph - 29.24 in 0.03 in
      essentialaccessibility.com
      We recognize our responsibility to use data and technology for good. We may use or share your data with our data vendors. Take control of your data.
      Glossary